sensor_id;sensor_type;location;lat;lon;timestamp;P1;durP1;ratioP1;P2;durP2;ratioP2
62832;SDS011;48891;49.220;6.920;2023-04-15T00:02:16;11.63;;;6.90;;
62832;SDS011;48891;49.220;6.920;2023-04-15T00:04:41;11.30;;;7.07;;
62832;SDS011;48891;49.220;6.920;2023-04-15T00:07:06;10.65;;;6.50;;
62832;SDS011;48891;49.220;6.920;2023-04-15T00:09:31;11.30;;;6.97;;
62832;SDS011;48891;49.220;6.920;2023-04-15T00:11:57;11.38;;;7.18;;
62832;SDS011;48891;49.220;6.920;2023-04-15T00:14:22;10.73;;;7.18;;
62832;SDS011;48891;49.220;6.920;2023-04-15T00:16:47;11.70;;;6.85;;
62832;SDS011;48891;49.220;6.920;2023-04-15T00:19:12;12.27;;;7.30;;
62832;SDS011;48891;49.220;6.920;2023-04-15T00:21:37;9.52;;;7.50;;
62832;SDS011;48891;49.220;6.920;2023-04-15T00:24:02;12.40;;;7.72;;
62832;SDS011;48891;49.220;6.920;2023-04-15T00:26:27;12.33;;;7.80;;
62832;SDS011;48891;49.220;6.920;2023-04-15T00:28:52;10.93;;;7.57;;
62832;SDS011;48891;49.220;6.920;2023-04-15T00:31:18;11.18;;;7.72;;
62832;SDS011;48891;49.220;6.920;2023-04-15T00:33:43;11.17;;;7.87;;
62832;SDS011;48891;49.220;6.920;2023-04-15T00:36:08;11.18;;;7.72;;
62832;SDS011;48891;49.220;6.920;2023-04-15T00:38:33;10.57;;;7.53;;
62832;SDS011;48891;49.220;6.920;2023-04-15T00:40:58;11.82;;;8.07;;
62832;SDS011;48891;49.220;6.920;2023-04-15T00:43:23;14.05;;;8.73;;
62832;SDS011;48891;49.220;6.920;2023-04-15T00:45:48;12.60;;;8.57;;
62832;SDS011;48891;49.220;6.920;2023-04-15T00:48:15;15.18;;;8.43;;
62832;SDS011;48891;49.220;6.920;2023-04-15T00:50:40;12.45;;;8.15;;
62832;SDS011;48891;49.220;6.920;2023-04-15T00:53:05;13.52;;;9.05;;
62832;SDS011;48891;49.220;6.920;2023-04-15T00:55:30;10.95;;;8.18;;
62832;SDS011;48891;49.220;6.920;2023-04-15T00:57:56;14.02;;;8.60;;
62832;SDS011;48891;49.220;6.920;2023-04-15T01:00:21;12.07;;;8.32;;
62832;SDS011;48891;49.220;6.920;2023-04-15T01:02:46;11.43;;;7.85;;
62832;SDS011;48891;49.220;6.920;2023-04-15T01:05:11;11.80;;;8.45;;
62832;SDS011;48891;49.220;6.920;2023-04-15T01:07:36;13.93;;;9.30;;
62832;SDS011;48891;49.220;6.920;2023-04-15T01:10:02;13.02;;;8.80;;
62832;SDS011;48891;49.220;6.920;2023-04-15T01:12:27;13.77;;;9.52;;
62832;SDS011;48891;49.220;6.920;2023-04-15T01:14:53;12.20;;;8.73;;
62832;SDS011;48891;49.220;6.920;2023-04-15T01:17:18;13.02;;;9.40;;
62832;SDS011;48891;49.220;6.920;2023-04-15T01:19:43;14.50;;;9.88;;
62832;SDS011;48891;49.220;6.920;2023-04-15T01:22:08;13.57;;;9.98;;
62832;SDS011;48891;49.220;6.920;2023-04-15T01:24:33;13.95;;;9.27;;
62832;SDS011;48891;49.220;6.920;2023-04-15T01:26:59;13.60;;;9.25;;
62832;SDS011;48891;49.220;6.920;2023-04-15T01:29:25;11.75;;;8.93;;
62832;SDS011;48891;49.220;6.920;2023-04-15T01:31:50;14.27;;;9.80;;
62832;SDS011;48891;49.220;6.920;2023-04-15T01:34:15;15.00;;;9.68;;
62832;SDS011;48891;49.220;6.920;2023-04-15T01:36:40;13.63;;;8.80;;
62832;SDS011;48891;49.220;6.920;2023-04-15T01:39:05;13.77;;;9.73;;
62832;SDS011;48891;49.220;6.920;2023-04-15T01:41:30;14.40;;;9.60;;
62832;SDS011;48891;49.220;6.920;2023-04-15T01:43:56;14.93;;;9.83;;
62832;SDS011;48891;49.220;6.920;2023-04-15T01:46:21;12.85;;;9.55;;
62832;SDS011;48891;49.220;6.920;2023-04-15T01:48:46;12.45;;;9.73;;
62832;SDS011;48891;49.220;6.920;2023-04-15T01:51:11;14.25;;;10.82;;
62832;SDS011;48891;49.220;6.920;2023-04-15T01:53:36;13.40;;;9.95;;
62832;SDS011;48891;49.220;6.920;2023-04-15T01:56:02;13.30;;;9.90;;
62832;SDS011;48891;49.220;6.920;2023-04-15T01:58:27;15.13;;;10.10;;
62832;SDS011;48891;49.220;6.920;2023-04-15T02:00:52;15.45;;;9.77;;
62832;SDS011;48891;49.220;6.920;2023-04-15T02:03:17;13.75;;;10.35;;
62832;SDS011;48891;49.220;6.920;2023-04-15T02:05:42;12.77;;;9.80;;
62832;SDS011;48891;49.220;6.920;2023-04-15T02:08:07;14.13;;;10.40;;
62832;SDS011;48891;49.220;6.920;2023-04-15T02:10:33;15.77;;;10.40;;
62832;SDS011;48891;49.220;6.920;2023-04-15T02:12:58;14.75;;;11.18;;
62832;SDS011;48891;49.220;6.920;2023-04-15T02:15:23;12.73;;;10.02;;
62832;SDS011;48891;49.220;6.920;2023-04-15T02:17:48;14.80;;;10.80;;
62832;SDS011;48891;49.220;6.920;2023-04-15T02:20:13;15.00;;;10.40;;
62832;SDS011;48891;49.220;6.920;2023-04-15T02:22:38;13.73;;;10.93;;
62832;SDS011;48891;49.220;6.920;2023-04-15T02:25:03;17.23;;;11.43;;
62832;SDS011;48891;49.220;6.920;2023-04-15T02:27:29;16.15;;;11.23;;
62832;SDS011;48891;49.220;6.920;2023-04-15T02:29:54;17.45;;;11.38;;
62832;SDS011;48891;49.220;6.920;2023-04-15T02:32:19;14.65;;;10.75;;
62832;SDS011;48891;49.220;6.920;2023-04-15T02:34:44;14.80;;;11.10;;
62832;SDS011;48891;49.220;6.920;2023-04-15T02:37:10;15.50;;;11.55;;
62832;SDS011;48891;49.220;6.920;2023-04-15T02:39:35;16.33;;;11.40;;
62832;SDS011;48891;49.220;6.920;2023-04-15T02:42:00;14.15;;;11.48;;
62832;SDS011;48891;49.220;6.920;2023-04-15T02:44:25;14.45;;;11.10;;
62832;SDS011;48891;49.220;6.920;2023-04-15T02:46:51;14.75;;;12.02;;
62832;SDS011;48891;49.220;6.920;2023-04-15T02:49:16;15.60;;;12.55;;
62832;SDS011;48891;49.220;6.920;2023-04-15T02:51:41;16.08;;;12.35;;
62832;SDS011;48891;49.220;6.920;2023-04-15T02:54:06;14.60;;;11.30;;
62832;SDS011;48891;49.220;6.920;2023-04-15T02:56:31;16.45;;;12.27;;
62832;SDS011;48891;49.220;6.920;2023-04-15T02:58:56;14.80;;;11.93;;
62832;SDS011;48891;49.220;6.920;2023-04-15T03:01:21;16.17;;;12.43;;
62832;SDS011;48891;49.220;6.920;2023-04-15T03:03:46;14.60;;;12.10;;
62832;SDS011;48891;49.220;6.920;2023-04-15T03:06:11;16.35;;;12.38;;
62832;SDS011;48891;49.220;6.920;2023-04-15T03:08:37;16.23;;;12.40;;
62832;SDS011;48891;49.220;6.920;2023-04-15T03:11:02;14.60;;;11.35;;
62832;SDS011;48891;49.220;6.920;2023-04-15T03:13:27;15.00;;;11.60;;
62832;SDS011;48891;49.220;6.920;2023-04-15T03:15:52;17.90;;;12.80;;
62832;SDS011;48891;49.220;6.920;2023-04-15T03:18:17;14.77;;;11.93;;
62832;SDS011;48891;49.220;6.920;2023-04-15T03:20:42;16.67;;;12.77;;
62832;SDS011;48891;49.220;6.920;2023-04-15T03:23:08;15.82;;;12.18;;
62832;SDS011;48891;49.220;6.920;2023-04-15T03:25:33;18.13;;;12.27;;
62832;SDS011;48891;49.220;6.920;2023-04-15T03:27:58;18.23;;;13.25;;
62832;SDS011;48891;49.220;6.920;2023-04-15T03:30:23;16.48;;;12.30;;
62832;SDS011;48891;49.220;6.920;2023-04-15T03:32:49;17.00;;;13.20;;
62832;SDS011;48891;49.220;6.920;2023-04-15T03:35:14;17.98;;;13.20;;
62832;SDS011;48891;49.220;6.920;2023-04-15T03:37:39;15.45;;;12.70;;
62832;SDS011;48891;49.220;6.920;2023-04-15T03:40:04;17.17;;;12.60;;
62832;SDS011;48891;49.220;6.920;2023-04-15T03:42:29;15.48;;;12.43;;
62832;SDS011;48891;49.220;6.920;2023-04-15T03:44:54;16.55;;;11.85;;
62832;SDS011;48891;49.220;6.920;2023-04-15T03:47:20;14.88;;;11.85;;
62832;SDS011;48891;49.220;6.920;2023-04-15T03:49:45;16.38;;;12.43;;
62832;SDS011;48891;49.220;6.920;2023-04-15T03:52:10;16.33;;;12.75;;
62832;SDS011;48891;49.220;6.920;2023-04-15T03:54:35;16.55;;;12.73;;
62832;SDS011;48891;49.220;6.920;2023-04-15T03:57:00;16.55;;;12.32;;
62832;SDS011;48891;49.220;6.920;2023-04-15T03:59:25;16.20;;;13.38;;
62832;SDS011;48891;49.220;6.920;2023-04-15T04:01:50;15.70;;;12.07;;
62832;SDS011;48891;49.220;6.920;2023-04-15T04:04:15;18.60;;;13.55;;
62832;SDS011;48891;49.220;6.920;2023-04-15T04:06:40;16.70;;;12.88;;
62832;SDS011;48891;49.220;6.920;2023-04-15T04:09:06;15.27;;;12.57;;
62832;SDS011;48891;49.220;6.920;2023-04-15T04:11:31;17.92;;;13.23;;
62832;SDS011;48891;49.220;6.920;2023-04-15T04:13:56;18.05;;;12.88;;
62832;SDS011;48891;49.220;6.920;2023-04-15T04:16:21;16.27;;;12.48;;
62832;SDS011;48891;49.220;6.920;2023-04-15T04:18:46;17.35;;;12.75;;
62832;SDS011;48891;49.220;6.920;2023-04-15T04:21:11;16.05;;;12.07;;
62832;SDS011;48891;49.220;6.920;2023-04-15T04:23:36;19.17;;;13.30;;
62832;SDS011;48891;49.220;6.920;2023-04-15T04:26:01;16.00;;;12.68;;
62832;SDS011;48891;49.220;6.920;2023-04-15T04:28:27;17.30;;;11.90;;
62832;SDS011;48891;49.220;6.920;2023-04-15T04:30:52;16.63;;;12.23;;
62832;SDS011;48891;49.220;6.920;2023-04-15T04:33:17;14.63;;;12.57;;
62832;SDS011;48891;49.220;6.920;2023-04-15T04:35:42;16.58;;;13.32;;
62832;SDS011;48891;49.220;6.920;2023-04-15T04:38:07;17.98;;;12.88;;
62832;SDS011;48891;49.220;6.920;2023-04-15T04:40:32;16.17;;;12.77;;
62832;SDS011;48891;49.220;6.920;2023-04-15T04:42:57;16.33;;;12.57;;
62832;SDS011;48891;49.220;6.920;2023-04-15T04:45:23;16.52;;;12.90;;
62832;SDS011;48891;49.220;6.920;2023-04-15T04:47:48;16.73;;;12.55;;
62832;SDS011;48891;49.220;6.920;2023-04-15T04:50:13;16.13;;;11.90;;
62832;SDS011;48891;49.220;6.920;2023-04-15T04:52:38;16.43;;;12.37;;
62832;SDS011;48891;49.220;6.920;2023-04-15T04:55:03;15.63;;;11.68;;
62832;SDS011;48891;49.220;6.920;2023-04-15T04:57:29;15.85;;;12.68;;
62832;SDS011;48891;49.220;6.920;2023-04-15T04:59:54;14.52;;;11.50;;
62832;SDS011;48891;49.220;6.920;2023-04-15T05:02:19;14.73;;;11.77;;
62832;SDS011;48891;49.220;6.920;2023-04-15T05:04:44;15.30;;;12.35;;
62832;SDS011;48891;49.220;6.920;2023-04-15T05:07:09;16.23;;;12.03;;
62832;SDS011;48891;49.220;6.920;2023-04-15T05:09:34;16.80;;;12.35;;
62832;SDS011;48891;49.220;6.920;2023-04-15T05:11:59;15.63;;;12.18;;
62832;SDS011;48891;49.220;6.920;2023-04-15T05:14:24;15.23;;;11.85;;
62832;SDS011;48891;49.220;6.920;2023-04-15T05:16:50;16.80;;;12.35;;
62832;SDS011;48891;49.220;6.920;2023-04-15T05:19:15;12.93;;;11.23;;
62832;SDS011;48891;49.220;6.920;2023-04-15T05:21:40;16.02;;;11.05;;
62832;SDS011;48891;49.220;6.920;2023-04-15T05:24:05;15.07;;;11.68;;
62832;SDS011;48891;49.220;6.920;2023-04-15T05:26:30;15.13;;;12.02;;
62832;SDS011;48891;49.220;6.920;2023-04-15T05:28:55;16.30;;;11.83;;
62832;SDS011;48891;49.220;6.920;2023-04-15T05:31:20;15.32;;;11.82;;
62832;SDS011;48891;49.220;6.920;2023-04-15T05:33:45;16.55;;;11.95;;
62832;SDS011;48891;49.220;6.920;2023-04-15T05:36:11;18.67;;;12.80;;
62832;SDS011;48891;49.220;6.920;2023-04-15T05:38:36;22.27;;;13.27;;
62832;SDS011;48891;49.220;6.920;2023-04-15T05:41:01;16.02;;;11.77;;
62832;SDS011;48891;49.220;6.920;2023-04-15T05:43:26;20.33;;;13.57;;
62832;SDS011;48891;49.220;6.920;2023-04-15T05:45:51;19.40;;;12.50;;
62832;SDS011;48891;49.220;6.920;2023-04-15T05:48:16;19.37;;;12.40;;
62832;SDS011;48891;49.220;6.920;2023-04-15T05:50:41;18.45;;;12.15;;
62832;SDS011;48891;49.220;6.920;2023-04-15T05:53:07;15.87;;;11.73;;
62832;SDS011;48891;49.220;6.920;2023-04-15T05:55:32;18.42;;;12.68;;
62832;SDS011;48891;49.220;6.920;2023-04-15T05:57:57;17.27;;;12.15;;
62832;SDS011;48891;49.220;6.920;2023-04-15T06:00:22;16.70;;;11.98;;
62832;SDS011;48891;49.220;6.920;2023-04-15T06:02:47;16.80;;;11.30;;
62832;SDS011;48891;49.220;6.920;2023-04-15T06:05:13;17.55;;;12.23;;
62832;SDS011;48891;49.220;6.920;2023-04-15T06:07:38;17.10;;;12.27;;
62832;SDS011;48891;49.220;6.920;2023-04-15T06:10:04;16.23;;;11.80;;
62832;SDS011;48891;49.220;6.920;2023-04-15T06:12:29;13.90;;;10.75;;
62832;SDS011;48891;49.220;6.920;2023-04-15T06:14:54;16.58;;;11.40;;
62832;SDS011;48891;49.220;6.920;2023-04-15T06:17:19;15.93;;;11.52;;
62832;SDS011;48891;49.220;6.920;2023-04-15T06:19:44;15.88;;;11.55;;
62832;SDS011;48891;49.220;6.920;2023-04-15T06:22:09;16.30;;;11.32;;
62832;SDS011;48891;49.220;6.920;2023-04-15T06:24:34;15.70;;;11.48;;
62832;SDS011;48891;49.220;6.920;2023-04-15T06:27:00;15.90;;;10.90;;
62832;SDS011;48891;49.220;6.920;2023-04-15T06:29:25;16.10;;;10.95;;
62832;SDS011;48891;49.220;6.920;2023-04-15T06:31:50;15.55;;;10.88;;
62832;SDS011;48891;49.220;6.920;2023-04-15T06:34:15;15.20;;;11.07;;
62832;SDS011;48891;49.220;6.920;2023-04-15T06:36:40;15.43;;;10.23;;
62832;SDS011;48891;49.220;6.920;2023-04-15T06:39:06;15.27;;;11.15;;
62832;SDS011;48891;49.220;6.920;2023-04-15T06:41:31;14.93;;;10.82;;
62832;SDS011;48891;49.220;6.920;2023-04-15T06:43:56;17.23;;;11.40;;
62832;SDS011;48891;49.220;6.920;2023-04-15T06:46:21;15.15;;;11.25;;
62832;SDS011;48891;49.220;6.920;2023-04-15T06:48:46;16.75;;;11.48;;
62832;SDS011;48891;49.220;6.920;2023-04-15T06:51:11;14.38;;;11.05;;
62832;SDS011;48891;49.220;6.920;2023-04-15T06:53:37;15.68;;;10.93;;
62832;SDS011;48891;49.220;6.920;2023-04-15T06:56:02;14.88;;;10.60;;
62832;SDS011;48891;49.220;6.920;2023-04-15T06:58:27;14.18;;;10.05;;
62832;SDS011;48891;49.220;6.920;2023-04-15T07:00:52;14.15;;;10.15;;
62832;SDS011;48891;49.220;6.920;2023-04-15T07:03:17;14.40;;;10.02;;
62832;SDS011;48891;49.220;6.920;2023-04-15T07:05:42;14.95;;;10.27;;
62832;SDS011;48891;49.220;6.920;2023-04-15T07:08:07;13.50;;;9.90;;
62832;SDS011;48891;49.220;6.920;2023-04-15T07:10:33;15.68;;;9.95;;
62832;SDS011;48891;49.220;6.920;2023-04-15T07:12:58;15.60;;;10.05;;
62832;SDS011;48891;49.220;6.920;2023-04-15T07:15:23;12.53;;;9.43;;
62832;SDS011;48891;49.220;6.920;2023-04-15T07:17:48;13.45;;;9.98;;
62832;SDS011;48891;49.220;6.920;2023-04-15T07:20:13;13.23;;;9.57;;
62832;SDS011;48891;49.220;6.920;2023-04-15T07:22:39;14.77;;;10.23;;
62832;SDS011;48891;49.220;6.920;2023-04-15T07:25:04;15.35;;;10.10;;
62832;SDS011;48891;49.220;6.920;2023-04-15T07:27:29;11.63;;;9.27;;
62832;SDS011;48891;49.220;6.920;2023-04-15T07:29:54;13.43;;;8.90;;
62832;SDS011;48891;49.220;6.920;2023-04-15T07:32:20;14.50;;;9.57;;
62832;SDS011;48891;49.220;6.920;2023-04-15T07:34:45;12.43;;;9.57;;
62832;SDS011;48891;49.220;6.920;2023-04-15T07:37:10;12.32;;;8.95;;
62832;SDS011;48891;49.220;6.920;2023-04-15T07:39:35;12.83;;;9.47;;
62832;SDS011;48891;49.220;6.920;2023-04-15T07:42:00;12.83;;;8.93;;
62832;SDS011;48891;49.220;6.920;2023-04-15T07:44:26;13.55;;;9.52;;
62832;SDS011;48891;49.220;6.920;2023-04-15T07:46:51;9.77;;;8.10;;
62832;SDS011;48891;49.220;6.920;2023-04-15T07:49:16;12.85;;;9.07;;
62832;SDS011;48891;49.220;6.920;2023-04-15T07:51:41;15.03;;;9.17;;
62832;SDS011;48891;49.220;6.920;2023-04-15T07:54:06;12.00;;;8.93;;
62832;SDS011;48891;49.220;6.920;2023-04-15T07:56:31;13.88;;;8.93;;
62832;SDS011;48891;49.220;6.920;2023-04-15T07:58:57;12.20;;;8.27;;
62832;SDS011;48891;49.220;6.920;2023-04-15T08:01:22;13.95;;;8.70;;
62832;SDS011;48891;49.220;6.920;2023-04-15T08:03:47;11.35;;;8.38;;
62832;SDS011;48891;49.220;6.920;2023-04-15T08:06:12;11.33;;;8.67;;
62832;SDS011;48891;49.220;6.920;2023-04-15T08:08:37;10.70;;;7.80;;
62832;SDS011;48891;49.220;6.920;2023-04-15T08:11:02;13.00;;;8.65;;
62832;SDS011;48891;49.220;6.920;2023-04-15T08:13:27;11.47;;;8.60;;
62832;SDS011;48891;49.220;6.920;2023-04-15T08:16:12;13.65;;;8.70;;
62832;SDS011;48891;49.220;6.920;2023-04-15T08:18:37;13.68;;;8.63;;
62832;SDS011;48891;49.220;6.920;2023-04-15T08:21:02;12.43;;;8.45;;
62832;SDS011;48891;49.220;6.920;2023-04-15T08:23:27;10.83;;;8.53;;
62832;SDS011;48891;49.220;6.920;2023-04-15T08:25:52;12.82;;;8.90;;
62832;SDS011;48891;49.220;6.920;2023-04-15T08:28:17;11.07;;;8.15;;
62832;SDS011;48891;49.220;6.920;2023-04-15T08:30:43;13.13;;;8.82;;
62832;SDS011;48891;49.220;6.920;2023-04-15T08:33:08;11.85;;;8.13;;
62832;SDS011;48891;49.220;6.920;2023-04-15T08:35:33;10.07;;;8.00;;
62832;SDS011;48891;49.220;6.920;2023-04-15T08:37:58;12.07;;;8.30;;
62832;SDS011;48891;49.220;6.920;2023-04-15T08:40:23;12.48;;;8.38;;
62832;SDS011;48891;49.220;6.920;2023-04-15T08:42:55;11.73;;;7.90;;
62832;SDS011;48891;49.220;6.920;2023-04-15T08:45:21;11.65;;;8.63;;
62832;SDS011;48891;49.220;6.920;2023-04-15T08:47:46;12.15;;;8.52;;
62832;SDS011;48891;49.220;6.920;2023-04-15T08:50:13;13.07;;;8.60;;
62832;SDS011;48891;49.220;6.920;2023-04-15T08:52:38;12.30;;;8.30;;
62832;SDS011;48891;49.220;6.920;2023-04-15T08:55:03;11.23;;;8.45;;
62832;SDS011;48891;49.220;6.920;2023-04-15T08:57:29;13.68;;;9.02;;
62832;SDS011;48891;49.220;6.920;2023-04-15T08:59:55;12.18;;;9.07;;
62832;SDS011;48891;49.220;6.920;2023-04-15T09:02:20;11.13;;;8.35;;
62832;SDS011;48891;49.220;6.920;2023-04-15T09:04:45;11.43;;;8.73;;
62832;SDS011;48891;49.220;6.920;2023-04-15T09:07:11;14.13;;;9.32;;
62832;SDS011;48891;49.220;6.920;2023-04-15T09:09:36;13.57;;;8.50;;
62832;SDS011;48891;49.220;6.920;2023-04-15T09:12:01;13.02;;;8.57;;
62832;SDS011;48891;49.220;6.920;2023-04-15T09:14:27;12.48;;;8.77;;
62832;SDS011;48891;49.220;6.920;2023-04-15T09:17:02;14.43;;;9.18;;
62832;SDS011;48891;49.220;6.920;2023-04-15T09:19:27;14.18;;;9.13;;
62832;SDS011;48891;49.220;6.920;2023-04-15T09:21:53;11.77;;;8.97;;
62832;SDS011;48891;49.220;6.920;2023-04-15T09:24:18;12.65;;;9.25;;
62832;SDS011;48891;49.220;6.920;2023-04-15T09:26:44;13.52;;;9.60;;
62832;SDS011;48891;49.220;6.920;2023-04-15T09:29:09;13.07;;;9.68;;
62832;SDS011;48891;49.220;6.920;2023-04-15T09:31:35;12.27;;;9.65;;
62832;SDS011;48891;49.220;6.920;2023-04-15T09:34:00;11.65;;;8.85;;
62832;SDS011;48891;49.220;6.920;2023-04-15T09:36:25;14.48;;;9.73;;
62832;SDS011;48891;49.220;6.920;2023-04-15T09:38:57;14.13;;;8.82;;
62832;SDS011;48891;49.220;6.920;2023-04-15T09:41:23;12.27;;;9.23;;
62832;SDS011;48891;49.220;6.920;2023-04-15T09:43:48;13.32;;;9.95;;
62832;SDS011;48891;49.220;6.920;2023-04-15T09:46:14;11.13;;;8.55;;
62832;SDS011;48891;49.220;6.920;2023-04-15T09:48:39;13.10;;;9.50;;
62832;SDS011;48891;49.220;6.920;2023-04-15T09:51:04;11.57;;;8.73;;
62832;SDS011;48891;49.220;6.920;2023-04-15T09:53:29;12.00;;;8.93;;
62832;SDS011;48891;49.220;6.920;2023-04-15T09:55:57;12.70;;;8.85;;
62832;SDS011;48891;49.220;6.920;2023-04-15T09:58:29;12.77;;;9.57;;
62832;SDS011;48891;49.220;6.920;2023-04-15T10:00:55;13.85;;;10.25;;
62832;SDS011;48891;49.220;6.920;2023-04-15T10:03:24;12.07;;;9.63;;
62832;SDS011;48891;49.220;6.920;2023-04-15T10:05:51;12.60;;;9.27;;
62832;SDS011;48891;49.220;6.920;2023-04-15T10:08:17;13.55;;;9.40;;
62832;SDS011;48891;49.220;6.920;2023-04-15T10:10:43;12.65;;;9.65;;
62832;SDS011;48891;49.220;6.920;2023-04-15T10:13:08;11.43;;;9.27;;
62832;SDS011;48891;49.220;6.920;2023-04-15T10:15:34;11.80;;;9.30;;
62832;SDS011;48891;49.220;6.920;2023-04-15T10:17:59;11.17;;;8.97;;
62832;SDS011;48891;49.220;6.920;2023-04-15T10:20:25;14.80;;;9.80;;
62832;SDS011;48891;49.220;6.920;2023-04-15T10:22:50;13.63;;;9.33;;
62832;SDS011;48891;49.220;6.920;2023-04-15T10:25:16;14.48;;;10.35;;
62832;SDS011;48891;49.220;6.920;2023-04-15T10:27:42;11.90;;;9.20;;
62832;SDS011;48891;49.220;6.920;2023-04-15T10:30:07;13.32;;;9.57;;
62832;SDS011;48891;49.220;6.920;2023-04-15T10:32:32;11.23;;;8.48;;
62832;SDS011;48891;49.220;6.920;2023-04-15T10:34:57;13.73;;;10.20;;
62832;SDS011;48891;49.220;6.920;2023-04-15T10:37:33;13.50;;;9.07;;
62832;SDS011;48891;49.220;6.920;2023-04-15T10:39:59;12.52;;;9.35;;
62832;SDS011;48891;49.220;6.920;2023-04-15T10:42:24;14.93;;;9.90;;
62832;SDS011;48891;49.220;6.920;2023-04-15T10:44:57;13.68;;;9.25;;
62832;SDS011;48891;49.220;6.920;2023-04-15T10:47:22;14.97;;;10.67;;
62832;SDS011;48891;49.220;6.920;2023-04-15T10:49:49;13.30;;;9.35;;
62832;SDS011;48891;49.220;6.920;2023-04-15T10:52:15;14.82;;;10.55;;
62832;SDS011;48891;49.220;6.920;2023-04-15T10:54:40;16.08;;;10.85;;
62832;SDS011;48891;49.220;6.920;2023-04-15T10:59:30;19.67;;;11.23;;
62832;SDS011;48891;49.220;6.920;2023-04-15T11:01:59;23.65;;;13.23;;
62832;SDS011;48891;49.220;6.920;2023-04-15T11:07:08;29.88;;;14.65;;
62832;SDS011;48891;49.220;6.920;2023-04-15T11:09:33;24.05;;;14.88;;
62832;SDS011;48891;49.220;6.920;2023-04-15T11:12:05;37.37;;;17.20;;
62832;SDS011;48891;49.220;6.920;2023-04-15T11:14:31;32.40;;;15.73;;
62832;SDS011;48891;49.220;6.920;2023-04-15T11:16:57;37.30;;;17.75;;
62832;SDS011;48891;49.220;6.920;2023-04-15T11:19:22;35.03;;;18.93;;
62832;SDS011;48891;49.220;6.920;2023-04-15T11:21:47;42.90;;;19.67;;
62832;SDS011;48891;49.220;6.920;2023-04-15T11:24:22;33.67;;;19.38;;
62832;SDS011;48891;49.220;6.920;2023-04-15T11:26:47;44.58;;;19.23;;
62832;SDS011;48891;49.220;6.920;2023-04-15T11:29:16;39.28;;;20.55;;
62832;SDS011;48891;49.220;6.920;2023-04-15T11:31:41;42.67;;;19.45;;
62832;SDS011;48891;49.220;6.920;2023-04-15T11:34:10;49.22;;;20.73;;
62832;SDS011;48891;49.220;6.920;2023-04-15T11:36:36;43.00;;;20.17;;
62832;SDS011;48891;49.220;6.920;2023-04-15T11:39:01;47.40;;;20.20;;
62832;SDS011;48891;49.220;6.920;2023-04-15T11:41:26;45.08;;;20.80;;
62832;SDS011;48891;49.220;6.920;2023-04-15T11:43:51;36.67;;;20.75;;
62832;SDS011;48891;49.220;6.920;2023-04-15T11:46:16;47.97;;;21.30;;
62832;SDS011;48891;49.220;6.920;2023-04-15T11:48:43;48.42;;;20.77;;
62832;SDS011;48891;49.220;6.920;2023-04-15T11:51:08;42.45;;;21.17;;
62832;SDS011;48891;49.220;6.920;2023-04-15T11:53:43;39.45;;;19.02;;
62832;SDS011;48891;49.220;6.920;2023-04-15T11:56:09;45.13;;;19.90;;
62832;SDS011;48891;49.220;6.920;2023-04-15T11:58:35;44.72;;;19.75;;
62832;SDS011;48891;49.220;6.920;2023-04-15T12:01:00;44.35;;;20.38;;
62832;SDS011;48891;49.220;6.920;2023-04-15T12:03:27;39.95;;;19.38;;
62832;SDS011;48891;49.220;6.920;2023-04-15T12:08:52;40.25;;;19.58;;
62832;SDS011;48891;49.220;6.920;2023-04-15T12:11:17;43.17;;;20.83;;
62832;SDS011;48891;49.220;6.920;2023-04-15T12:13:46;42.53;;;20.15;;
62832;SDS011;48891;49.220;6.920;2023-04-15T12:16:11;40.08;;;20.50;;
62832;SDS011;48891;49.220;6.920;2023-04-15T12:18:37;41.45;;;19.48;;
62832;SDS011;48891;49.220;6.920;2023-04-15T12:21:11;47.15;;;20.38;;
62832;SDS011;48891;49.220;6.920;2023-04-15T12:23:37;37.40;;;18.63;;
62832;SDS011;48891;49.220;6.920;2023-04-15T12:26:05;40.22;;;19.77;;
62832;SDS011;48891;49.220;6.920;2023-04-15T12:28:30;44.10;;;19.58;;
62832;SDS011;48891;49.220;6.920;2023-04-15T12:30:55;40.92;;;19.27;;
62832;SDS011;48891;49.220;6.920;2023-04-15T12:33:20;39.08;;;19.05;;
62832;SDS011;48891;49.220;6.920;2023-04-15T12:35:45;38.38;;;19.92;;
62832;SDS011;48891;49.220;6.920;2023-04-15T12:38:10;35.88;;;19.52;;
62832;SDS011;48891;49.220;6.920;2023-04-15T12:40:36;37.72;;;18.98;;
62832;SDS011;48891;49.220;6.920;2023-04-15T12:43:01;40.63;;;19.20;;
62832;SDS011;48891;49.220;6.920;2023-04-15T12:45:26;37.75;;;19.48;;
62832;SDS011;48891;49.220;6.920;2023-04-15T12:47:51;42.15;;;19.60;;
62832;SDS011;48891;49.220;6.920;2023-04-15T12:50:16;38.77;;;19.03;;
62832;SDS011;48891;49.220;6.920;2023-04-15T12:52:41;33.95;;;18.35;;
62832;SDS011;48891;49.220;6.920;2023-04-15T12:55:06;34.67;;;18.80;;
62832;SDS011;48891;49.220;6.920;2023-04-15T12:57:32;36.85;;;18.23;;
62832;SDS011;48891;49.220;6.920;2023-04-15T12:59:57;29.70;;;19.07;;
62832;SDS011;48891;49.220;6.920;2023-04-15T13:02:22;39.65;;;19.25;;
62832;SDS011;48891;49.220;6.920;2023-04-15T13:04:47;30.95;;;18.83;;
62832;SDS011;48891;49.220;6.920;2023-04-15T13:07:12;36.47;;;19.13;;
62832;SDS011;48891;49.220;6.920;2023-04-15T13:09:37;33.50;;;18.45;;
62832;SDS011;48891;49.220;6.920;2023-04-15T13:12:03;32.58;;;17.75;;
62832;SDS011;48891;49.220;6.920;2023-04-15T13:14:28;33.58;;;18.10;;
62832;SDS011;48891;49.220;6.920;2023-04-15T13:16:53;33.10;;;19.90;;
62832;SDS011;48891;49.220;6.920;2023-04-15T13:19:18;37.78;;;19.05;;
62832;SDS011;48891;49.220;6.920;2023-04-15T13:21:43;35.43;;;18.80;;
62832;SDS011;48891;49.220;6.920;2023-04-15T13:24:08;36.38;;;18.73;;
62832;SDS011;48891;49.220;6.920;2023-04-15T13:26:33;33.28;;;18.88;;
62832;SDS011;48891;49.220;6.920;2023-04-15T13:28:59;38.25;;;19.33;;
62832;SDS011;48891;49.220;6.920;2023-04-15T13:31:24;29.77;;;18.00;;
62832;SDS011;48891;49.220;6.920;2023-04-15T13:33:49;33.35;;;19.10;;
62832;SDS011;48891;49.220;6.920;2023-04-15T13:36:15;34.58;;;20.52;;
62832;SDS011;48891;49.220;6.920;2023-04-15T13:38:40;30.63;;;19.33;;
62832;SDS011;48891;49.220;6.920;2023-04-15T13:41:05;34.28;;;18.55;;
62832;SDS011;48891;49.220;6.920;2023-04-15T13:43:30;32.88;;;18.85;;
62832;SDS011;48891;49.220;6.920;2023-04-15T13:45:55;34.88;;;20.00;;
62832;SDS011;48891;49.220;6.920;2023-04-15T13:48:20;34.10;;;20.55;;
62832;SDS011;48891;49.220;6.920;2023-04-15T13:50:45;32.33;;;20.23;;
62832;SDS011;48891;49.220;6.920;2023-04-15T13:53:11;34.80;;;20.20;;
62832;SDS011;48891;49.220;6.920;2023-04-15T13:55:36;35.40;;;21.45;;
62832;SDS011;48891;49.220;6.920;2023-04-15T13:58:01;33.95;;;21.08;;
62832;SDS011;48891;49.220;6.920;2023-04-15T14:00:26;32.42;;;20.38;;
62832;SDS011;48891;49.220;6.920;2023-04-15T14:02:51;38.03;;;21.25;;
62832;SDS011;48891;49.220;6.920;2023-04-15T14:05:16;38.50;;;21.63;;
62832;SDS011;48891;49.220;6.920;2023-04-15T14:07:41;37.93;;;22.23;;
62832;SDS011;48891;49.220;6.920;2023-04-15T14:10:07;36.35;;;23.30;;
62832;SDS011;48891;49.220;6.920;2023-04-15T14:12:32;33.85;;;21.70;;
62832;SDS011;48891;49.220;6.920;2023-04-15T14:14:57;37.47;;;21.35;;
62832;SDS011;48891;49.220;6.920;2023-04-15T14:17:22;37.20;;;22.48;;
62832;SDS011;48891;49.220;6.920;2023-04-15T14:19:47;35.30;;;22.13;;
62832;SDS011;48891;49.220;6.920;2023-04-15T14:22:12;35.55;;;23.10;;
62832;SDS011;48891;49.220;6.920;2023-04-15T14:24:37;32.37;;;23.03;;